Time;durP1;ratioP1;P1;durP2;ratioP2;P2;SDS_P1;SDS_P2;PMS_P1;PMS_P2;Temp;Humidity;BMP_temperature;BMP_pressure;BME280_temperature;BME280_humidity;BME280_pressure;Samples;Min_cycle;Max_cycle;Signal;HPM_P1;HPM_P2
2022/07/29 00:00:20;;;;;;;1.10;1.00;;;;;;;18.52;47.29;101137.56;5072322;28;20225;-76
2022/07/29 00:02:47;;;;;;;3.03;1.10;;;;;;;18.54;47.24;101143.63;5072342;28;20278;-75
2022/07/29 00:05:14;;;;;;;2.57;1.00;;;;;;;18.51;47.43;101139.31;5072018;28;20213;-77
2022/07/29 00:07:41;;;;;;;3.27;1.13;;;;;;;18.49;47.64;101141.16;5072032;28;20251;-75
2022/07/29 00:10:08;;;;;;;4.43;0.90;;;;;;;18.43;47.88;101133.47;5072098;28;20271;-75
2022/07/29 00:12:35;;;;;;;2.47;0.90;;;;;;;18.40;47.72;101131.81;5072099;28;20570;-76
2022/07/29 00:15:02;;;;;;;2.53;1.00;;;;;;;18.41;47.78;101124.75;5071769;28;20710;-75
2022/07/29 00:17:28;;;;;;;2.60;1.10;;;;;;;18.38;48.05;101123.09;5072208;28;20197;-75
2022/07/29 00:19:56;;;;;;;2.60;1.00;;;;;;;18.37;47.98;101121.38;5072053;28;20875;-75
2022/07/29 00:22:23;;;;;;;2.43;0.87;;;;;;;18.35;48.25;101120.56;5072011;28;20575;-75
2022/07/29 00:24:49;;;;;;;2.93;1.30;;;;;;;18.34;48.17;101115.38;5071628;28;20200;-76
2022/07/29 00:27:16;;;;;;;2.13;1.20;;;;;;;18.31;48.27;101113.69;5072069;28;20230;-75
2022/07/29 00:29:42;;;;;;;1.80;1.00;;;;;;;18.32;48.42;101104.00;5071874;28;20225;-75
2022/07/29 00:32:09;;;;;;;1.53;1.10;;;;;;;18.29;48.36;101098.81;5071598;28;20230;-75
2022/07/29 00:37:23;;;;;;;1.93;1.30;;;;;;;18.24;48.63;101088.44;5053132;28;20197;-75
2022/07/29 00:39:50;;;;;;;4.57;1.10;;;;;;;18.19;48.65;101093.03;5071391;28;20220;-75
2022/07/29 00:42:17;;;;;;;1.60;1.00;;;;;;;18.18;48.80;101081.63;5071524;28;20258;-76
2022/07/29 00:44:44;;;;;;;2.07;1.10;;;;;;;18.17;48.85;101071.09;5071035;28;20211;-75
2022/07/29 00:47:11;;;;;;;3.93;1.00;;;;;;;18.16;49.05;101070.25;5071157;28;20216;-75
2022/07/29 00:49:40;;;;;;;1.93;1.30;;;;;;;18.05;49.05;101068.03;5071015;28;20220;-75
2022/07/29 00:52:08;;;;;;;2.23;1.10;;;;;;;18.05;49.47;101061.88;5068797;28;20200;-75
2022/07/29 00:54:38;;;;;;;2.73;1.00;;;;;;;17.99;49.43;101057.72;5071449;28;20193;-75
2022/07/29 00:57:07;;;;;;;4.30;1.20;;;;;;;17.97;49.47;101043.69;5075200;28;20254;-75
2022/07/29 00:59:34;;;;;;;2.33;1.10;;;;;;;17.93;49.71;101031.53;5074896;28;20775;-74
2022/07/29 01:02:00;;;;;;;1.67;1.20;;;;;;;17.93;49.82;101030.69;5075055;28;20209;-77
2022/07/29 01:04:27;;;;;;;1.60;0.93;;;;;;;17.91;49.71;101029.88;5072478;28;20197;-75
2022/07/29 01:06:55;;;;;;;9.07;1.27;;;;;;;17.88;49.88;101020.31;5074950;28;20209;-75
2022/07/29 01:09:22;;;;;;;2.97;1.20;;;;;;;17.85;49.86;101018.63;5074779;28;20690;-75
2022/07/29 01:11:51;;;;;;;2.50;0.97;;;;;;;17.84;50.05;101014.28;5075047;28;20208;-74
2022/07/29 01:14:18;;;;;;;2.80;1.20;;;;;;;17.78;50.10;101006.59;5074938;28;20201;-75
2022/07/29 01:16:51;;;;;;;2.73;1.10;;;;;;;17.77;50.26;100994.28;5074274;28;20613;-75
2022/07/29 01:19:45;;;;;;;1.60;1.20;;;;;;;17.71;50.51;100997.19;5075040;28;20213;-75
2022/07/29 01:22:26;;;;;;;2.10;1.10;;;;;;;17.69;50.56;100985.81;5073062;28;20208;-75
2022/07/29 01:25:07;;;;;;;2.77;1.00;;;;;;;17.67;50.92;100972.66;5072817;28;20202;-75
2022/07/29 01:27:51;;;;;;;3.40;1.27;;;;;;;17.63;50.94;100970.22;5072964;28;20207;-74
2022/07/29 01:30:22;;;;;;;1.37;1.20;;;;;;;17.57;51.10;100958.13;5073557;28;20289;-74
2022/07/29 01:32:54;;;;;;;2.00;1.07;;;;;;;17.57;51.00;100967.84;5072314;28;20209;-76
2022/07/29 01:35:25;;;;;;;3.30;1.27;;;;;;;17.56;51.10;100964.34;5074179;28;20678;-74
2022/07/29 01:37:58;;;;;;;2.00;1.00;;;;;;;17.54;51.21;100954.75;5072766;28;20627;-75
2022/07/29 01:40:29;;;;;;;2.47;1.00;;;;;;;17.54;51.08;100954.75;5074034;28;20224;-75
2022/07/29 01:42:58;;;;;;;7.57;1.40;;;;;;;17.51;51.21;100957.53;5074487;28;20256;-75
2022/07/29 01:45:32;;;;;;;1.20;0.90;;;;;;;17.46;51.39;100955.91;5074363;28;20204;-75
2022/07/29 01:48:04;;;;;;;2.77;1.40;;;;;;;17.45;51.44;100948.91;5073645;28;20220;-74
2022/07/29 01:50:35;;;;;;;3.03;1.10;;;;;;;17.39;51.53;100954.44;5070724;28;20217;-75
2022/07/29 01:53:05;;;;;;;3.90;1.30;;;;;;;17.37;51.60;100950.13;5072986;28;20266;-75
2022/07/29 01:55:35;;;;;;;2.10;1.40;;;;;;;17.31;51.84;100945.97;5071031;28;20204;-75
2022/07/29 01:58:05;;;;;;;3.83;0.90;;;;;;;17.27;52.00;100941.72;5073051;28;20204;-75
2022/07/29 02:00:35;;;;;;;3.97;1.30;;;;;;;17.23;52.18;100938.34;5072999;28;20227;-74
2022/07/29 02:03:06;;;;;;;1.70;1.33;;;;;;;17.23;52.29;100929.56;5072740;28;20547;-75
2022/07/29 02:05:35;;;;;;;1.27;0.80;;;;;;;17.18;52.37;100921.81;5070211;28;20205;-75
2022/07/29 02:08:03;;;;;;;1.53;1.23;;;;;;;17.15;52.53;100916.66;5072563;28;20232;-75
2022/07/29 02:10:32;;;;;;;3.00;1.20;;;;;;;17.12;52.71;100910.66;5072917;28;20221;-76
2022/07/29 02:13:00;;;;;;;2.03;1.30;;;;;;;17.06;52.71;100902.03;5072956;28;20274;-75
2022/07/29 02:15:29;;;;;;;1.03;0.97;;;;;;;17.02;53.05;100892.53;5072594;28;20279;-74
2022/07/29 02:18:00;;;;;;;2.33;1.13;;;;;;;17.04;53.18;100895.09;5072715;28;20204;-74
2022/07/29 02:20:28;;;;;;;2.73;1.03;;;;;;;17.00;53.27;100888.22;5072679;28;20253;-75
2022/07/29 02:22:56;;;;;;;2.03;1.20;;;;;;;17.01;52.94;100880.28;5072835;28;20200;-76
2022/07/29 02:25:25;;;;;;;1.83;1.03;;;;;;;16.98;53.45;100877.75;5072488;28;20204;-77
2022/07/29 02:27:52;;;;;;;1.40;1.07;;;;;;;17.00;53.64;100865.34;5072652;28;20248;-75
2022/07/29 02:30:21;;;;;;;2.17;1.00;;;;;;;17.01;53.32;100877.63;5072184;28;20269;-75
2022/07/29 02:32:49;;;;;;;3.63;1.50;;;;;;;16.98;53.14;100876.88;5072302;28;20208;-75
2022/07/29 02:35:17;;;;;;;1.77;1.00;;;;;;;16.94;53.45;100878.78;5072213;28;20212;-76
2022/07/29 02:38:49;;;;;;;3.17;1.10;;;;;;;16.90;53.57;100871.06;5072539;28;20211;-75
2022/07/29 02:40:35;;;;;;;2.07;1.20;;;;;;;16.89;53.62;100864.94;5070061;28;20695;-74
2022/07/29 02:43:03;;;;;;;2.37;1.27;;;;;;;16.89;53.84;100867.56;5072374;28;20201;-75
2022/07/29 02:45:30;;;;;;;5.70;1.10;;;;;;;16.88;53.98;100868.47;5069921;28;20200;-75
2022/07/29 02:48:00;;;;;;;1.57;1.10;;;;;;;16.87;53.82;100870.25;5036523;28;1032387;-74
2022/07/29 02:50:34;;;;;;;4.30;1.20;;;;;;;16.85;53.94;100858.91;5072799;28;20224;-75
2022/07/29 02:53:06;;;;;;;1.97;1.00;;;;;;;16.80;53.89;100858.19;5073202;28;20245;-75
2022/07/29 02:55:37;;;;;;;4.60;1.30;;;;;;;16.76;54.12;100855.72;5072672;28;20204;-74
2022/07/29 02:58:11;;;;;;;5.60;1.20;;;;;;;16.77;53.92;100854.78;5073188;28;20236;-74
2022/07/29 03:00:39;;;;;;;2.67;1.20;;;;;;;16.79;53.84;100853.84;5072773;28;20725;-75
2022/07/29 03:03:11;;;;;;;3.20;1.40;;;;;;;16.75;54.02;100848.72;5072945;28;20200;-74
2022/07/29 03:05:40;;;;;;;3.93;1.77;;;;;;;16.75;54.02;100843.44;5072720;28;20204;-75
2022/07/29 03:08:10;;;;;;;6.87;1.50;;;;;;;16.79;54.43;100845.06;5072937;28;20209;-74
2022/07/29 03:10:38;;;;;;;2.90;1.00;;;;;;;16.78;54.11;100844.19;5073099;28;20231;-75
2022/07/29 03:13:06;;;;;;;2.80;1.20;;;;;;;16.75;54.34;100841.69;5073186;28;20214;-75
2022/07/29 03:15:33;;;;;;;7.10;1.30;;;;;;;16.73;54.38;100838.25;5072757;28;20296;-75
2022/07/29 03:18:00;;;;;;;1.47;1.37;;;;;;;16.73;54.29;100838.25;5072104;28;20247;-74
2022/07/29 03:20:27;;;;;;;2.00;1.30;;;;;;;16.71;54.22;100840.09;5073005;28;20224;-76
2022/07/29 03:22:55;;;;;;;3.90;1.30;;;;;;;16.68;54.39;100846.31;5073073;28;20258;-75
2022/07/29 03:25:21;;;;;;;4.87;1.50;;;;;;;16.65;54.41;100838.53;5072745;28;20209;-75
2022/07/29 03:27:48;;;;;;;2.53;1.10;;;;;;;16.64;54.40;100842.09;5072830;28;20250;-74
2022/07/29 03:30:16;;;;;;;2.07;1.17;;;;;;;16.65;54.46;100835.91;5072568;28;20693;-75
2022/07/29 03:32:42;;;;;;;2.00;1.07;;;;;;;16.65;54.28;100835.06;5072461;28;20208;-74
2022/07/29 03:35:09;;;;;;;2.37;2.17;;;;;;;16.70;54.27;100834.88;5072723;28;20208;-74
2022/07/29 03:37:36;;;;;;;2.77;1.10;;;;;;;16.62;54.50;100835.16;5072571;28;20243;-76
2022/07/29 03:40:08;;;;;;;3.90;1.40;;;;;;;16.61;54.52;100841.34;5072884;28;20232;-74
2022/07/29 03:42:38;;;;;;;2.10;1.10;;;;;;;16.66;54.48;100834.13;5072448;28;20208;-74
2022/07/29 03:45:09;;;;;;;2.17;1.20;;;;;;;16.64;54.58;100843.88;5072454;28;20216;-74
2022/07/29 03:47:40;;;;;;;2.07;1.10;;;;;;;16.60;54.62;100839.63;5072428;28;20303;-75
2022/07/29 03:50:09;;;;;;;1.97;1.10;;;;;;;16.55;54.88;100834.53;5072212;28;20228;-74
2022/07/29 03:52:36;;;;;;;2.40;1.33;;;;;;;16.56;54.99;100833.59;5072424;28;20200;-75
2022/07/29 03:55:05;;;;;;;2.17;1.37;;;;;;;16.55;54.99;100834.53;5072342;28;20204;-75
2022/07/29 03:57:33;;;;;;;1.90;1.10;;;;;;;16.52;55.09;100828.53;5072514;28;20201;-75
2022/07/29 04:00:02;;;;;;;1.97;1.10;;;;;;;16.51;55.12;100822.41;5072269;28;20217;-74
2022/07/29 04:02:28;;;;;;;3.93;1.20;;;;;;;16.52;55.12;100817.97;5072337;28;20207;-74
2022/07/29 04:04:55;;;;;;;4.03;1.40;;;;;;;16.51;55.10;100818.88;5071951;28;20281;-74
2022/07/29 04:07:21;;;;;;;3.10;1.23;;;;;;;16.53;55.06;100822.31;5072408;28;20262;-74
2022/07/29 04:09:47;;;;;;;2.07;1.50;;;;;;;16.47;55.50;100826.91;5071861;28;20235;-74
2022/07/29 04:12:15;;;;;;;1.67;1.10;;;;;;;16.46;55.43;100822.56;5072089;28;20670;-74
2022/07/29 04:14:42;;;;;;;1.43;1.33;;;;;;;16.44;55.88;100820.91;5071622;28;20690;-76
2022/07/29 04:17:08;;;;;;;2.33;1.20;;;;;;;16.45;55.81;100818.22;5072182;28;20201;-74
2022/07/29 04:19:35;;;;;;;1.63;1.30;;;;;;;16.44;55.69;100815.63;5071890;28;20270;-76
2022/07/29 04:22:02;;;;;;;1.77;0.80;;;;;;;16.43;55.55;100819.16;5072069;28;20259;-74
2022/07/29 04:24:29;;;;;;;3.00;1.10;;;;;;;16.38;56.00;100814.06;5071773;28;20204;-75
2022/07/29 04:26:55;;;;;;;3.07;1.30;;;;;;;16.39;55.70;100815.81;5071713;28;20743;-74
2022/07/29 04:29:23;;;;;;;2.10;1.07;;;;;;;16.44;55.72;100813.84;5071677;28;20669;-75
2022/07/29 04:31:49;;;;;;;1.80;1.20;;;;;;;16.45;55.96;100806.78;5071629;28;20665;-74
2022/07/29 04:34:16;;;;;;;2.83;1.00;;;;;;;16.45;55.87;100814.69;5072069;28;20212;-74
2022/07/29 04:36:42;;;;;;;2.23;1.17;;;;;;;16.46;55.82;100816.44;5071691;28;20212;-75
2022/07/29 04:39:09;;;;;;;4.80;1.23;;;;;;;16.45;56.02;100819.97;5071557;28;20713;-75
2022/07/29 04:41:36;;;;;;;2.80;1.10;;;;;;;16.47;55.90;100818.13;5072053;28;20258;-74
2022/07/29 04:44:05;;;;;;;1.60;1.10;;;;;;;16.51;55.85;100816.25;5071910;28;20571;-75
2022/07/29 04:46:33;;;;;;;5.03;2.00;;;;;;;16.53;55.93;100823.19;5071491;28;20205;-76
2022/07/29 04:48:59;;;;;;;3.17;1.10;;;;;;;16.52;56.17;100824.09;5071764;28;20278;-73
2022/07/29 04:51:25;;;;;;;3.80;1.10;;;;;;;16.53;56.05;100823.19;5071793;28;20211;-75
2022/07/29 04:53:52;;;;;;;2.27;1.20;;;;;;;16.53;56.20;100828.47;5071967;28;20250;-75
2022/07/29 04:56:18;;;;;;;2.43;1.13;;;;;;;16.56;56.05;100827.50;5071461;28;20616;-74
2022/07/29 04:58:45;;;;;;;3.10;1.20;;;;;;;16.53;55.91;100830.22;5071700;28;20211;-74
2022/07/29 05:01:11;;;;;;;2.50;1.07;;;;;;;16.58;55.83;100830.94;5071322;28;20609;-74
2022/07/29 05:03:39;;;;;;;1.60;1.27;;;;;;;16.66;55.69;100837.63;5071588;28;20208;-74
2022/07/29 05:06:05;;;;;;;1.87;1.30;;;;;;;16.64;55.85;100844.72;5071239;28;20234;-74
2022/07/29 05:08:32;;;;;;;1.63;1.00;;;;;;;16.63;55.81;100837.75;5071621;28;20201;-74
2022/07/29 05:10:58;;;;;;;3.47;1.37;;;;;;;16.62;55.59;100836.00;5071505;28;20285;-74
2022/07/29 05:13:25;;;;;;;2.23;1.37;;;;;;;16.67;55.63;100838.50;5071606;28;20257;-74
2022/07/29 05:15:51;;;;;;;3.37;1.20;;;;;;;16.67;55.77;100839.34;5071258;28;20216;-74
2022/07/29 05:18:17;;;;;;;1.57;1.00;;;;;;;16.72;55.77;100838.31;5071573;28;20257;-76
2022/07/29 05:20:45;;;;;;;4.37;1.20;;;;;;;16.75;55.89;100838.19;5071284;28;20262;-74
2022/07/29 05:23:14;;;;;;;2.87;1.17;;;;;;;16.74;55.88;100841.75;5071456;28;20277;-74
2022/07/29 05:25:40;;;;;;;2.80;1.67;;;;;;;16.74;56.14;100842.59;5071276;28;20250;-74
2022/07/29 05:28:07;;;;;;;3.00;1.30;;;;;;;16.81;56.22;100825.66;5071190;28;20737;-74
2022/07/29 05:30:33;;;;;;;2.67;1.37;;;;;;;16.75;56.18;100833.78;5071227;28;20259;-74
2022/07/29 05:33:00;;;;;;;1.73;1.30;;;;;;;16.78;56.24;100838.06;5071208;28;20220;-74
2022/07/29 05:35:26;;;;;;;3.30;1.23;;;;;;;16.79;56.24;100821.34;5071232;28;20719;-74
2022/07/29 05:37:54;;;;;;;2.20;1.20;;;;;;;16.81;56.15;100820.41;5071326;28;20254;-74
2022/07/29 05:40:21;;;;;;;4.40;1.40;;;;;;;16.84;56.15;100816.78;5071405;28;20217;-74
2022/07/29 05:42:47;;;;;;;3.80;1.37;;;;;;;16.91;56.07;100815.63;5074959;28;20212;-76
2022/07/29 05:45:14;;;;;;;1.93;1.30;;;;;;;16.95;55.91;100816.38;5074514;28;20303;-75
2022/07/29 05:47:40;;;;;;;2.53;1.30;;;;;;;16.96;56.21;100812.78;5074783;28;20215;-74
2022/07/29 05:50:08;;;;;;;4.13;1.43;;;;;;;17.01;56.07;100811.69;5074463;28;20232;-73
2022/07/29 05:52:34;;;;;;;3.13;1.27;;;;;;;17.06;56.03;100815.00;5074953;28;20307;-74
2022/07/29 05:55:04;;;;;;;3.10;1.50;;;;;;;17.01;56.04;100818.75;5074510;28;20212;-74
2022/07/29 05:57:30;;;;;;;3.37;1.50;;;;;;;16.99;56.31;100824.09;5074689;28;20211;-74
2022/07/29 05:59:57;;;;;;;3.13;1.63;;;;;;;17.01;56.31;100816.13;5074395;28;20597;-74
2022/07/29 06:02:23;;;;;;;2.83;1.20;;;;;;;17.04;56.29;100818.63;5074303;28;20201;-75
2022/07/29 06:04:50;;;;;;;2.43;0.90;;;;;;;17.06;56.37;100816.78;5074401;28;20205;-75
2022/07/29 06:07:16;;;;;;;2.70;1.40;;;;;;;17.10;56.36;100822.81;5074535;28;20209;-74
2022/07/29 06:09:43;;;;;;;2.80;1.30;;;;;;;17.07;56.26;100821.16;5074274;28;20832;-73
2022/07/29 06:12:11;;;;;;;9.53;1.70;;;;;;;17.13;56.50;100820.06;5074456;28;20212;-74
2022/07/29 06:14:38;;;;;;;3.20;1.40;;;;;;;17.14;56.42;100821.75;5074365;28;20209;-73
2022/07/29 06:17:05;;;;;;;2.07;1.40;;;;;;;17.18;56.17;100824.19;5073903;28;20211;-73
2022/07/29 06:19:31;;;;;;;3.43;1.37;;;;;;;17.25;56.01;100825.69;5074450;28;20223;-72
2022/07/29 06:21:58;;;;;;;5.17;1.73;;;;;;;17.31;56.00;100823.72;5074208;28;20212;-73
2022/07/29 06:24:24;;;;;;;3.23;1.40;;;;;;;17.44;55.89;100823.16;5074312;28;20301;-72
2022/07/29 06:26:50;;;;;;;2.80;1.60;;;;;;;17.50;55.78;100826.44;5073790;28;20732;-74
2022/07/29 06:29:18;;;;;;;3.13;1.30;;;;;;;17.59;55.52;100834.00;5073914;28;20226;-74
2022/07/29 06:31:45;;;;;;;2.47;1.50;;;;;;;17.67;55.46;100845.09;5073919;28;20212;-72
2022/07/29 06:34:11;;;;;;;1.80;1.37;;;;;;;17.71;54.94;100849.31;5074152;28;20208;-74
2022/07/29 06:36:38;;;;;;;4.87;1.53;;;;;;;17.77;54.78;100864.91;5073582;28;20211;-73
2022/07/29 06:39:06;;;;;;;4.27;1.80;;;;;;;17.86;54.52;100863.69;5074029;28;20274;-73
2022/07/29 06:41:33;;;;;;;2.47;1.17;;;;;;;17.89;54.74;100874.13;5073691;28;20240;-73
2022/07/29 06:43:59;;;;;;;3.50;1.73;;;;;;;17.97;54.45;100869.34;5073701;28;20209;-72
2022/07/29 06:46:27;;;;;;;2.00;1.50;;;;;;;18.00;54.57;100878.97;5073577;28;20212;-73
2022/07/29 06:48:54;;;;;;;2.90;1.70;;;;;;;18.02;54.66;100883.25;5073840;28;20244;-76
2022/07/29 06:51:21;;;;;;;4.43;1.77;;;;;;;18.08;54.80;100866.28;5073869;28;20224;-76
2022/07/29 06:53:47;;;;;;;3.67;1.40;;;;;;;18.17;54.56;100872.94;5072379;28;20670;-76
2022/07/29 06:56:14;;;;;;;3.23;1.67;;;;;;;18.24;54.23;100879.69;5073386;28;20258;-76
2022/07/29 06:58:40;;;;;;;3.77;2.20;;;;;;;18.30;54.25;100876.75;5073098;28;20270;-76
2022/07/29 07:01:07;;;;;;;3.23;1.60;;;;;;;18.32;54.05;100889.91;5073738;28;20203;-76
2022/07/29 07:03:35;;;;;;;3.13;1.50;;;;;;;18.39;54.58;100880.75;5073274;28;20258;-76
2022/07/29 07:06:01;;;;;;;1.83;1.50;;;;;;;18.45;54.14;100869.91;5073399;28;20205;-76
2022/07/29 07:08:28;;;;;;;2.00;1.40;;;;;;;18.51;54.00;100882.84;5073519;28;20259;-77
2022/07/29 07:10:56;;;;;;;6.93;2.13;;;;;;;18.59;53.71;100882.50;5073149;28;20229;-76
2022/07/29 07:13:22;;;;;;;3.53;1.67;;;;;;;18.61;53.39;100896.53;5073128;28;20212;-77
2022/07/29 07:15:50;;;;;;;2.70;1.50;;;;;;;18.65;53.66;100898.97;5073184;28;20250;-79
2022/07/29 07:18:17;;;;;;;4.63;1.67;;;;;;;18.74;53.41;100894.19;5073150;28;20204;-78
2022/07/29 07:20:45;;;;;;;2.10;1.70;;;;;;;18.79;53.14;100889.53;5072920;28;20767;-78
2022/07/29 07:23:12;;;;;;;1.90;1.30;;;;;;;18.89;53.67;100905.88;5064139;28;20192;-78
2022/07/29 07:25:38;;;;;;;3.67;1.88;;;;;;;18.99;53.30;100907.19;5071202;28;20426;-75
2022/07/29 07:28:05;;;;;;;3.67;2.33;;;;;;;19.09;53.16;100904.94;5072775;28;20209;-75
2022/07/29 07:30:31;;;;;;;2.37;1.90;;;;;;;19.16;52.82;100915.19;5072230;28;20451;-76
2022/07/29 07:32:58;;;;;;;4.03;2.00;;;;;;;19.25;52.86;100919.19;5072750;28;20203;-76
2022/07/29 07:35:24;;;;;;;4.57;2.00;;;;;;;19.27;52.84;100930.56;5071820;28;20679;-76
2022/07/29 07:37:52;;;;;;;3.93;1.90;;;;;;;19.31;52.32;100950.66;5072307;28;20201;-76
2022/07/29 07:40:18;;;;;;;3.70;1.83;;;;;;;19.32;51.66;100959.47;5071701;28;20636;-76
2022/07/29 07:42:45;;;;;;;3.67;1.70;;;;;;;19.41;51.97;100977.56;5072104;28;20667;-75
2022/07/29 07:45:12;;;;;;;3.80;2.20;;;;;;;19.42;51.65;100968.66;5072207;28;20254;-75
2022/07/29 07:47:39;;;;;;;2.80;1.87;;;;;;;19.43;51.81;100973.91;5071778;28;20616;-75
2022/07/29 07:50:08;;;;;;;5.27;1.77;;;;;;;19.47;51.85;100971.13;5071758;28;20267;-76
2022/07/29 07:52:34;;;;;;;2.27;1.70;;;;;;;19.51;51.69;100965.59;5071989;28;20615;-75
2022/07/29 07:55:02;;;;;;;7.47;2.00;;;;;;;19.58;51.46;100967.03;5071646;28;20608;-75
2022/07/29 07:57:28;;;;;;;10.33;2.63;;;;;;;19.67;51.34;100967.53;5072113;28;20208;-75
2022/07/29 07:59:55;;;;;;;2.40;1.73;;;;;;;19.74;50.88;100979.53;5071465;28;20633;-76
2022/07/29 08:02:21;;;;;;;3.83;2.30;;;;;;;19.83;50.98;100985.25;5071744;28;20196;-75
2022/07/29 08:04:48;;;;;;;3.90;2.63;;;;;;;19.87;51.16;100993.06;5071069;28;20197;-76
2022/07/29 08:07:15;;;;;;;4.93;1.77;;;;;;;19.93;50.61;100988.31;5071608;28;20246;-76
2022/07/29 08:09:41;;;;;;;3.20;2.00;;;;;;;19.96;50.42;100989.94;5071573;28;20220;-75
2022/07/29 08:12:09;;;;;;;2.67;1.83;;;;;;;20.01;50.42;100998.53;5071686;28;20681;-75
2022/07/29 08:14:36;;;;;;;2.83;1.90;;;;;;;20.06;50.81;100985.06;5071641;28;20541;-75
2022/07/29 08:17:02;;;;;;;4.77;2.50;;;;;;;20.09;50.49;100987.56;5071288;28;20628;-75
2022/07/29 08:19:29;;;;;;;2.50;1.70;;;;;;;20.13;50.86;100995.28;5072257;28;20216;-78
2022/07/29 08:21:55;;;;;;;3.13;2.00;;;;;;;20.17;51.17;100988.88;5071386;28;20246;-79
2022/07/29 08:27:06;;;;;;;3.77;1.93;;;;;;;20.24;51.03;100997.41;5070786;28;20255;-77
2022/07/29 08:29:34;;;;;;;3.43;1.80;;;;;;;20.28;50.81;100991.00;5071329;28;20224;-76
2022/07/29 08:32:00;;;;;;;2.80;1.77;;;;;;;20.29;50.70;100982.09;5071210;28;20219;-76
2022/07/29 08:34:28;;;;;;;2.80;1.97;;;;;;;20.35;50.54;100991.53;5071191;28;20556;-76
2022/07/29 08:36:54;;;;;;;2.63;1.90;;;;;;;20.41;50.05;101008.00;5071100;28;20685;-76
2022/07/29 08:39:21;;;;;;;2.87;1.80;;;;;;;20.49;49.86;101022.66;5071408;28;20269;-77
2022/07/29 08:41:48;;;;;;;3.63;1.67;;;;;;;20.51;50.56;101016.34;5071373;28;20196;-76
2022/07/29 08:44:16;;;;;;;5.63;1.83;;;;;;;20.54;50.91;100989.66;5071541;28;20200;-76
2022/07/29 08:46:44;;;;;;;9.37;2.37;;;;;;;20.63;50.26;100993.66;5071345;28;20193;-76
2022/07/29 08:49:11;;;;;;;3.13;1.83;;;;;;;20.73;50.03;101020.56;5067886;28;20280;-76
2022/07/29 08:51:39;;;;;;;3.90;1.73;;;;;;;20.80;49.78;101021.97;5071246;28;20259;-76
2022/07/29 08:54:07;;;;;;;2.63;1.70;;;;;;;20.87;49.33;101033.13;5070313;28;20287;-77
2022/07/29 08:56:34;;;;;;;6.57;2.10;;;;;;;20.94;49.14;101045.13;5071216;28;20201;-76
2022/07/29 08:59:04;;;;;;;1.93;1.70;;;;;;;21.01;49.98;101038.56;5071676;28;20224;-76
2022/07/29 09:01:31;;;;;;;7.00;2.03;;;;;;;21.15;49.33;101030.72;5071349;28;20208;-77
2022/07/29 09:04:01;;;;;;;3.43;1.80;;;;;;;21.21;49.35;101040.16;5071306;28;20724;-76
2022/07/29 09:06:32;;;;;;;2.10;1.90;;;;;;;21.36;49.50;101043.78;5071496;28;20248;-76
2022/07/29 09:09:00;;;;;;;3.13;2.10;;;;;;;21.50;48.61;101048.34;5071467;28;20231;-77
2022/07/29 09:11:27;;;;;;;9.03;2.23;;;;;;;21.61;48.22;101051.28;5071697;28;20224;-76
2022/07/29 09:13:53;;;;;;;4.13;2.47;;;;;;;21.75;49.02;101048.72;5071475;28;20697;-76
2022/07/29 09:16:20;;;;;;;4.13;1.90;;;;;;;21.92;47.51;101078.78;5072407;28;20207;-76
2022/07/29 09:18:47;;;;;;;2.50;1.93;;;;;;;21.99;47.14;101083.69;5065676;28;20208;-76
2022/07/29 09:24:03;;;;;;;4.37;2.60;;;;;;;22.09;46.61;101110.59;5075339;28;20223;-76
2022/07/29 09:26:30;;;;;;;3.07;1.90;;;;;;;22.04;48.87;101070.16;5074741;28;20274;-76
2022/07/29 09:28:57;;;;;;;5.30;2.07;;;;;;;22.06;48.66;101047.00;5075213;28;20207;-76
2022/07/29 09:31:33;;;;;;;3.73;2.20;;;;;;;22.20;46.77;101073.63;5075082;28;20247;-76
2022/07/29 09:34:00;;;;;;;2.73;2.13;;;;;;;22.27;47.13;101113.22;5074896;28;20573;-76
2022/07/29 09:36:29;;;;;;;4.00;2.20;;;;;;;22.41;46.67;101106.13;5074769;28;20247;-76
2022/07/29 09:38:59;;;;;;;5.80;2.13;;;;;;;22.52;46.61;101102.88;5074597;28;20645;-77
2022/07/29 09:41:26;;;;;;;2.47;1.87;;;;;;;22.62;46.05;101115.63;5075429;28;20240;-77
2022/07/29 09:43:56;;;;;;;3.23;1.93;;;;;;;22.60;46.71;101086.44;5074806;28;20201;-76
2022/07/29 09:46:25;;;;;;;2.80;1.90;;;;;;;22.61;46.50;101098.78;5074659;28;20264;-76
2022/07/29 09:49:07;;;;;;;3.40;1.90;;;;;;;22.70;45.33;101103.59;5074217;28;20231;-76
2022/07/29 09:51:35;;;;;;;6.67;2.30;;;;;;;22.73;46.29;101106.03;5074363;28;20221;-76
2022/07/29 09:54:03;;;;;;;2.77;2.07;;;;;;;22.79;45.22;101121.69;5074953;28;20211;-76
2022/07/29 09:56:40;;;;;;;4.33;1.97;;;;;;;22.83;45.35;101129.47;5074293;28;20619;-76
2022/07/29 09:59:07;;;;;;;2.40;1.90;;;;;;;22.85;45.41;101135.56;5074488;28;20254;-76
2022/07/29 10:01:33;;;;;;;4.43;2.50;;;;;;;22.88;45.35;101124.75;5074452;28;20210;-77
2022/07/29 10:04:00;;;;;;;4.03;1.87;;;;;;;22.90;46.01;101104.19;5073989;28;20208;-77
2022/07/29 10:06:26;;;;;;;4.27;1.90;;;;;;;22.92;46.56;101107.63;5074103;28;20680;-76
2022/07/29 10:08:54;;;;;;;4.13;1.87;;;;;;;22.97;46.18;101087.78;5074254;28;20204;-76
2022/07/29 10:11:20;;;;;;;3.23;1.97;;;;;;;23.13;44.96;101124.13;5074275;28;20278;-76
2022/07/29 10:13:49;;;;;;;2.87;1.90;;;;;;;23.18;44.80;101117.56;5074156;28;20204;-76
2022/07/29 10:16:16;;;;;;;7.37;2.27;;;;;;;23.27;44.45;101149.94;5074234;28;20275;-76
2022/07/29 10:18:44;;;;;;;4.80;2.13;;;;;;;23.34;45.37;101136.13;5073591;28;20204;-76
2022/07/29 10:21:10;;;;;;;2.57;1.97;;;;;;;23.40;44.69;101126.91;5074241;28;20193;-78
2022/07/29 10:23:37;;;;;;;3.47;2.30;;;;;;;23.47;44.18;101152.25;5073879;28;20211;-77
2022/07/29 10:26:05;;;;;;;2.77;2.40;;;;;;;23.54;44.46;101155.38;5073823;28;20208;-76
2022/07/29 10:28:32;;;;;;;3.37;1.93;;;;;;;23.55;44.73;101155.28;5073634;28;20205;-76
2022/07/29 10:31:02;;;;;;;3.03;2.03;;;;;;;23.60;44.07;101161.19;5073377;28;20594;-76
2022/07/29 10:33:46;;;;;;;5.67;2.53;;;;;;;23.59;44.00;101147.97;5073442;28;20216;-76
2022/07/29 10:36:26;;;;;;;3.30;1.87;;;;;;;23.57;44.09;101155.19;5072752;28;20238;-76
2022/07/29 10:39:02;;;;;;;4.70;2.70;;;;;;;23.58;44.18;101160.41;5073799;28;20205;-76
2022/07/29 10:42:11;;;;;;;2.03;1.83;;;;;;;23.58;43.84;101141.75;5073731;28;20292;-76
2022/07/29 10:44:43;;;;;;;3.60;1.90;;;;;;;23.57;44.24;101157.88;4359354;28;10000829;-76
2022/07/29 10:47:21;;;;;;;2.60;2.33;;;;;;;23.57;44.29;101149.88;5050274;28;20746;-76
2022/07/29 10:49:57;;;;;;;3.37;2.40;;;;;;;23.55;44.10;101152.63;5062145;28;20313;-76
2022/07/29 10:52:24;;;;;;;3.63;2.30;;;;;;;23.54;43.81;101155.38;5071134;28;20226;-77
2022/07/29 10:54:52;;;;;;;8.20;2.37;;;;;;;23.55;44.33;101149.97;5070266;28;20207;-76
2022/07/29 10:57:26;;;;;;;3.77;2.20;;;;;;;23.55;44.14;101147.28;5070787;28;20236;-76
2022/07/29 11:00:27;;;;;;;5.03;2.03;;;;;;;23.58;44.41;101138.25;5071079;28;20234;-76
2022/07/29 11:02:56;;;;;;;2.97;2.33;;;;;;;23.60;44.80;101131.84;5070845;28;20267;-76
2022/07/29 11:05:23;;;;;;;4.77;2.50;;;;;;;23.58;44.34;101131.09;5070171;28;20211;-76
2022/07/29 11:08:21;;;;;;;3.77;2.83;;;;;;;23.56;44.40;101151.66;5069901;28;20212;-78
2022/07/29 11:10:47;;;;;;;3.90;1.83;;;;;;;23.58;44.72;101125.75;5069817;28;20770;-75
2022/07/29 11:13:49;;;;;;;3.10;2.17;;;;;;;23.65;43.83;101133.41;5070124;28;20220;-75
2022/07/29 11:16:17;;;;;;;2.53;2.20;;;;;;;23.60;44.66;101136.34;5069727;28;20219;-74
2022/07/29 11:19:17;;;;;;;5.23;3.00;;;;;;;23.64;43.81;101139.69;5069901;28;20199;-75
2022/07/29 11:21:46;;;;;;;4.07;2.07;;;;;;;23.66;44.06;101154.59;5062519;28;20287;-75
2022/07/29 11:24:14;;;;;;;4.67;2.20;;;;;;;23.69;44.07;101140.25;5069104;28;20262;-76
2022/07/29 11:26:42;;;;;;;4.70;2.80;;;;;;;23.71;44.36;101149.84;5069321;28;20208;-75
2022/07/29 11:29:19;;;;;;;5.67;2.70;;;;;;;23.74;44.09;101143.47;5069494;28;20216;-75
2022/07/29 11:31:48;;;;;;;4.77;2.50;;;;;;;23.76;43.69;101154.88;5066289;28;20228;-76
2022/07/29 11:34:20;;;;;;;4.77;2.13;;;;;;;23.77;43.82;101151.28;5069321;28;20334;-74
2022/07/29 11:37:19;;;;;;;5.13;3.10;;;;;;;23.83;43.92;101145.59;5064163;28;20209;-75
2022/07/29 11:39:48;;;;;;;4.20;2.43;;;;;;;23.85;43.70;101149.03;5065998;28;20235;-75